Historyczne dane pomiarowe

Dodano dane terminowe – wersja testowa.

Dane z okresu 1951-2019

Wersja bazy: 1.34 [2019-03-16, lista zmian], aktualizacja planowana na 2019-04-15

Dane meteo z obszaru Polski uzyskane na podstawie danych udostępnionych przez Instytut Meteorologii i Gospodarki Wodnej – Państwowy Instytut Badawczy.

 

Wybierz Datę:    

       

TemperaturaWilgotnośćWiatrCiśnienieOpadyŚniegCzas trwania zjawisk
 Stacja t tx tn tng RH VA  wxwx mslp ppp RRR   cm mm wxwxwxwxwxwxwx
1961-08-14 14.6 17.5 10.5- 84.3- 5.7 1.7---- 0.1------------
1961-08-13 15.4 16.4 14.6- 95.0- 4.3 10.7---- 0.0------------
1961-08-12 16.2 18.7 14.6- 86.5- 2.7 2.7---- 0.0------------
1961-08-11 16.8 18.5 13.7- 94.0- 5.7 0.3---- 0.0------------
1961-08-10 18.3 25.4 12.1- 94.8- 5.7 1.7---- 2.2------------
1961-08-09 16.8 21.3 13.7- 88.5- 3.3 0.7---- 0.0------------
1961-08-08 15.3 18.5 14.1- 93.0- 4.3 2.0---- 2.2------------
1961-08-07 15.6 17.9 14.1- 94.8- 5.7 3.3---- 1.4------------
1961-08-06 17.9 21.3 15.0- 87.0- 2.7 2.7---- 1.9------------
1961-08-05 15.8 18.5 14.6- 88.5- 5.0 7.0---- 0.0------------
1961-08-04 13.8 15.4 9.9- 96.8- 8.0 6.7---- 9.0------------
1961-08-03 15.0 15.8 13.6- 85.5- 7.3 4.3---- 3.2------------
1961-08-02 15.5 17.5 13.9- 91.8- 6.7 2.7---- 0.0------------
1961-08-01 15.4 16.2 14.6- 91.8- 7.3 7.7---- 1.9------------
1961-07-31 15.2 15.6 13.8- 95.8- 8.0 9.7---- 50.2------------
1961-07-30 15.1 16.0 13.5- 97.5- 6.3 4.0---- 0.0------------
1961-07-29 15.2 16.2 12.3- 92.5- 5.0 7.7---- 0.5------------
1961-07-28 13.3 16.4 12.3- 93.8- 7.3 5.7---- 0.0------------
1961-07-27 16.1 19.0 15.3- 86.8- 7.7 7.3---- 1.9------------
1961-07-26 16.5 21.6 13.6- 90.3- 8.0 5.0---- 5.5------------
1961-07-25 15.2 16.9 14.5- 83.5- 5.7 6.0---- 0.0------------
1961-07-24 15.5 16.0 14.1- 80.5- 6.0 9.3---- 0.0------------
1961-07-23 14.6 17.1 14.1- 86.3- 6.7 8.7---- 3.5------------
1961-07-22 15.4 16.4 14.5- 91.3- 8.0 6.7---- 1.2------------
1961-07-21 16.1 17.1 13.3- 89.5- 7.3 5.7---- 3.4------------
1961-07-20 14.8 17.9 11.3- 88.3- 6.7 2.0---- 12.2------------
1961-07-19 15.9 18.5 13.7- 91.0- 6.7 4.0---- 1.3------------
1961-07-18 15.7 18.5 11.1- 91.8- 4.0 2.0---- 3.4------------
1961-07-17 14.5 17.4 9.8- 95.3- 6.0 1.0---- 0.0------------
1961-07-16 14.5 17.2 11.2- 92.8- 7.7 1.7---- 15.8------------
1961-07-15 15.5 17.4 13.7- 80.8- 5.3 2.0---- 4.2------------
1961-07-14 14.0 17.0 13.5- 93.3- 7.3 7.7---- 1.5------------
1961-07-13 20.0 31.8 13.6- 81.0- 5.3 5.3---- 18.0------------
1961-07-12 16.4 19.1 13.3- 88.5- 3.3 3.0---- 0.0------------
1961-07-11 15.4 17.5 13.6- 80.0- 4.3 4.7---- 1.6------------
1961-07-10 14.6 16.4 13.1- 80.5- 6.0 8.7---- 0.4------------
1961-07-09 15.2 16.2 13.7- 80.5- 8.0 4.3---- 2.3------------
1961-07-08 15.1 18.5 10.2- 89.3- 6.7 2.0---- 9.7------------
1961-07-07 12.6 15.4 11.2- 82.0- 5.3 6.7---- 0.0------------
1961-07-06 13.8 15.8 8.0- 81.0- 7.3 8.0---- 9.2------------
1961-07-05 13.4 15.4 11.7- 76.8- 6.3 12.7---- 10.2------------
1961-07-04 16.0 20.0 11.6- 95.5- 6.7 5.0---- 5.0------------
1961-07-03 20.3 29.9 14.1- 97.8- 4.3 2.7---- 0.0------------
1961-07-02 21.2 26.9 8.8- 78.5- 0.0 0.7---- 0.0------------
1961-07-01 15.4 19.9 8.5- 81.5- 0.0 1.3---- 0.0------------
1961-06-30 15.5 17.4 14.3- 82.5- 0.3 3.3---- 0.0------------
1961-06-29 16.5 17.8 14.4- 80.3- 2.7 9.3---- 0.0------------
1961-06-28 15.2 17.9 13.5- 74.5- 3.3 17.3---- 0.0------------
1961-06-27 19.0 28.9 16.5- 86.5- 6.7 2.3---- 4.7------------
1961-06-26 17.3 22.9 15.5- 80.5- 0.0 2.7---- 0.0------------
1961-06-25 18.8 23.1 16.0- 74.0- 2.3 6.3---- 0.0------------
1961-06-24 17.0 19.0 13.9- 71.0- 2.7 8.7---- 0.0------------
1961-06-23 16.8 18.5 10.5- 74.0- 3.3 5.7---- 0.0------------
1961-06-22 15.1 20.3 7.0- 67.5- 2.0 2.7---- 0.0------------
1961-06-21 14.4 17.0 10.4- 71.3- 5.7 4.7---- 0.0------------
1961-06-20 14.6 16.6 12.8- 66.8- 4.0 9.7---- 0.0------------
1961-06-19 14.9 16.9 13.3- 75.8- 2.3 10.7---- 0.0------------
1961-06-18 17.7 21.0 15.1- 82.8- 5.3 8.7---- 2.2------------
1961-06-17 16.6 20.0 13.0- 84.8- 3.3 3.3---- 0.0------------
1961-06-16 13.1 13.8 12.7- 89.0- 5.7 9.0---- 0.0------------
356.5 ms

 

Źródłem pochodzenia danych jest Instytut Meteorologii i Gospodarki Wodnej – Państwowy Instytut Badawczy. Dane Instytutu Meteorologii i Gospodarki Wodnej – Państwowego Instytutu Badawczego zostały przetworzone.

Dane źródłowe można odnaleźć na stronie https://dane.imgw.pl